Terminal Aerodrome Forecast
Issued by NWS

Home | Current Version | Previous Version | Text Only | Print | Product List | Glossary On
Versions: 1 2 3 4 5 6 7 8 9 10 11 12 13 14 15 16 17 18 19 20 21 22 23 24 25 26 27 28 29 30 31 32 33 34 35 36
000
FTUS45 KPSR 211100
TAFPHX
TAF
KPHX 211138Z 2112/2212 VRB06KT P6SM SCT120 BKN200
     FM211600 32006KT P6SM VCSH SCT100 BKN150
     FM212100 28012KT P6SM VCTS SCT080CB BKN120 PROB30 2121/2201
      -TSRA BKN070CB
     FM220300 VRB06KT P6SM SCT080 BKN150=

USA.gov is the U.S. government's official web portal to all federal, state and local government web resources and services.